sensor_id;sensor_type;location;lat;lon;timestamp;temperature;humidity
6843;DHT22;3460;52.028;8.916;2023-06-19T00:02:00;22.40;1.00
6843;DHT22;3460;52.028;8.916;2023-06-19T00:04:27;22.40;1.00
6843;DHT22;3460;52.028;8.916;2023-06-19T00:06:54;22.40;1.00
6843;DHT22;3460;52.028;8.916;2023-06-19T00:09:21;22.40;1.00
6843;DHT22;3460;52.028;8.916;2023-06-19T00:11:47;22.40;1.00
6843;DHT22;3460;52.028;8.916;2023-06-19T00:14:16;22.20;1.00
6843;DHT22;3460;52.028;8.916;2023-06-19T00:16:43;22.20;1.00
6843;DHT22;3460;52.028;8.916;2023-06-19T00:19:10;22.10;1.00
6843;DHT22;3460;52.028;8.916;2023-06-19T00:21:37;22.10;1.00
6843;DHT22;3460;52.028;8.916;2023-06-19T00:24:05;22.10;1.00
6843;DHT22;3460;52.028;8.916;2023-06-19T00:26:31;22.10;1.00
6843;DHT22;3460;52.028;8.916;2023-06-19T00:28:58;22.00;1.00
6843;DHT22;3460;52.028;8.916;2023-06-19T00:31:26;22.00;1.00
6843;DHT22;3460;52.028;8.916;2023-06-19T00:33:54;21.90;1.00
6843;DHT22;3460;52.028;8.916;2023-06-19T00:36:20;21.90;1.00
6843;DHT22;3460;52.028;8.916;2023-06-19T00:38:49;21.90;1.00
6843;DHT22;3460;52.028;8.916;2023-06-19T00:41:16;22.00;1.00
6843;DHT22;3460;52.028;8.916;2023-06-19T00:43:43;21.90;1.00
6843;DHT22;3460;52.028;8.916;2023-06-19T00:46:11;21.90;1.00
6843;DHT22;3460;52.028;8.916;2023-06-19T00:48:39;21.80;1.00
6843;DHT22;3460;52.028;8.916;2023-06-19T00:51:06;21.60;73.60
6843;DHT22;3460;52.028;8.916;2023-06-19T00:53:33;21.50;63.30
6843;DHT22;3460;52.028;8.916;2023-06-19T00:56:01;21.40;99.90
6843;DHT22;3460;52.028;8.916;2023-06-19T00:58:28;21.30;47.70
6843;DHT22;3460;52.028;8.916;2023-06-19T01:00:55;21.30;99.90
6843;DHT22;3460;52.028;8.916;2023-06-19T01:03:22;21.10;99.90
6843;DHT22;3460;52.028;8.916;2023-06-19T01:05:54;21.10;99.90
6843;DHT22;3460;52.028;8.916;2023-06-19T01:08:40;21.00;99.90
6843;DHT22;3460;52.028;8.916;2023-06-19T01:11:08;21.00;71.80
6843;DHT22;3460;52.028;8.916;2023-06-19T01:13:40;21.00;77.60
6843;DHT22;3460;52.028;8.916;2023-06-19T01:16:08;21.00;14.80
6843;DHT22;3460;52.028;8.916;2023-06-19T01:18:37;21.00;41.30
6843;DHT22;3460;52.028;8.916;2023-06-19T01:21:12;21.10;16.90
6843;DHT22;3460;52.028;8.916;2023-06-19T01:23:41;21.10;22.10
6843;DHT22;3460;52.028;8.916;2023-06-19T01:26:09;21.10;1.00
6843;DHT22;3460;52.028;8.916;2023-06-19T01:28:38;21.10;1.30
6843;DHT22;3460;52.028;8.916;2023-06-19T01:31:09;21.10;1.00
6843;DHT22;3460;52.028;8.916;2023-06-19T01:33:38;21.20;1.00
6843;DHT22;3460;52.028;8.916;2023-06-19T01:36:07;21.20;1.00
6843;DHT22;3460;52.028;8.916;2023-06-19T01:38:34;21.20;1.00
6843;DHT22;3460;52.028;8.916;2023-06-19T01:41:05;21.20;1.00
6843;DHT22;3460;52.028;8.916;2023-06-19T01:43:33;21.30;1.00
6843;DHT22;3460;52.028;8.916;2023-06-19T01:46:00;21.30;1.00
6843;DHT22;3460;52.028;8.916;2023-06-19T01:48:28;21.30;1.00
6843;DHT22;3460;52.028;8.916;2023-06-19T01:50:55;21.40;1.00
6843;DHT22;3460;52.028;8.916;2023-06-19T01:53:21;21.40;1.00
6843;DHT22;3460;52.028;8.916;2023-06-19T01:55:48;21.40;1.00
6843;DHT22;3460;52.028;8.916;2023-06-19T01:58:17;21.40;1.00
6843;DHT22;3460;52.028;8.916;2023-06-19T02:00:44;21.40;1.00
6843;DHT22;3460;52.028;8.916;2023-06-19T02:03:11;21.40;1.00
6843;DHT22;3460;52.028;8.916;2023-06-19T02:05:37;21.30;1.00
6843;DHT22;3460;52.028;8.916;2023-06-19T02:08:05;21.40;47.40
6843;DHT22;3460;52.028;8.916;2023-06-19T02:10:32;21.30;1.00
6843;DHT22;3460;52.028;8.916;2023-06-19T02:12:59;21.30;17.60
6843;DHT22;3460;52.028;8.916;2023-06-19T02:15:27;21.30;15.40
6843;DHT22;3460;52.028;8.916;2023-06-19T02:17:55;21.30;1.00
6843;DHT22;3460;52.028;8.916;2023-06-19T02:20:23;21.30;5.60
6843;DHT22;3460;52.028;8.916;2023-06-19T02:22:51;21.30;1.00
6843;DHT22;3460;52.028;8.916;2023-06-19T02:25:18;21.30;1.00
6843;DHT22;3460;52.028;8.916;2023-06-19T02:27:45;21.30;1.00
6843;DHT22;3460;52.028;8.916;2023-06-19T02:30:13;21.20;1.00
6843;DHT22;3460;52.028;8.916;2023-06-19T02:32:41;21.20;24.50
6843;DHT22;3460;52.028;8.916;2023-06-19T02:35:10;21.20;1.00
6843;DHT22;3460;52.028;8.916;2023-06-19T02:37:37;21.10;51.60
6843;DHT22;3460;52.028;8.916;2023-06-19T02:40:04;21.10;22.10
6843;DHT22;3460;52.028;8.916;2023-06-19T02:42:32;21.00;93.10
6843;DHT22;3460;52.028;8.916;2023-06-19T02:44:59;21.00;99.90
6843;DHT22;3460;52.028;8.916;2023-06-19T02:47:29;21.00;92.60
6843;DHT22;3460;52.028;8.916;2023-06-19T02:49:58;20.90;99.90
6843;DHT22;3460;52.028;8.916;2023-06-19T02:52:26;21.00;99.90
6843;DHT22;3460;52.028;8.916;2023-06-19T02:54:53;20.90;99.90
6843;DHT22;3460;52.028;8.916;2023-06-19T02:57:19;20.90;99.90
6843;DHT22;3460;52.028;8.916;2023-06-19T02:59:46;20.90;99.90
6843;DHT22;3460;52.028;8.916;2023-06-19T03:02:13;20.90;99.90
6843;DHT22;3460;52.028;8.916;2023-06-19T03:04:40;20.90;99.90
6843;DHT22;3460;52.028;8.916;2023-06-19T03:07:09;20.90;99.90
6843;DHT22;3460;52.028;8.916;2023-06-19T03:09:36;20.80;99.90
6843;DHT22;3460;52.028;8.916;2023-06-19T03:12:03;20.80;99.90
6843;DHT22;3460;52.028;8.916;2023-06-19T03:14:30;20.90;99.90
6843;DHT22;3460;52.028;8.916;2023-06-19T03:16:57;20.90;99.90
6843;DHT22;3460;52.028;8.916;2023-06-19T03:19:24;20.90;99.90
6843;DHT22;3460;52.028;8.916;2023-06-19T03:21:50;20.90;99.90
6843;DHT22;3460;52.028;8.916;2023-06-19T03:24:18;20.80;1.00
6843;DHT22;3460;52.028;8.916;2023-06-19T03:26:45;20.70;1.00
6843;DHT22;3460;52.028;8.916;2023-06-19T03:29:12;20.70;1.00
6843;DHT22;3460;52.028;8.916;2023-06-19T03:31:39;20.70;1.00
6843;DHT22;3460;52.028;8.916;2023-06-19T03:34:06;20.70;1.00
6843;DHT22;3460;52.028;8.916;2023-06-19T03:36:32;20.80;1.00
6843;DHT22;3460;52.028;8.916;2023-06-19T03:38:59;20.80;99.90
6843;DHT22;3460;52.028;8.916;2023-06-19T03:41:27;20.80;99.90
6843;DHT22;3460;52.028;8.916;2023-06-19T03:43:54;20.90;99.90
6843;DHT22;3460;52.028;8.916;2023-06-19T03:46:21;21.00;99.90
6843;DHT22;3460;52.028;8.916;2023-06-19T03:48:48;21.00;99.90
6843;DHT22;3460;52.028;8.916;2023-06-19T03:51:15;21.00;99.90
6843;DHT22;3460;52.028;8.916;2023-06-19T03:53:41;21.10;99.90
6843;DHT22;3460;52.028;8.916;2023-06-19T03:56:08;21.00;99.90
6843;DHT22;3460;52.028;8.916;2023-06-19T03:58:36;21.00;99.90
6843;DHT22;3460;52.028;8.916;2023-06-19T04:01:03;21.00;99.90
6843;DHT22;3460;52.028;8.916;2023-06-19T04:03:31;21.00;99.90
6843;DHT22;3460;52.028;8.916;2023-06-19T04:05:57;21.00;99.90
6843;DHT22;3460;52.028;8.916;2023-06-19T04:08:24;21.00;99.90
6843;DHT22;3460;52.028;8.916;2023-06-19T04:10:51;21.10;99.90
6843;DHT22;3460;52.028;8.916;2023-06-19T04:13:18;21.10;99.90
6843;DHT22;3460;52.028;8.916;2023-06-19T04:15:46;21.10;99.90
6843;DHT22;3460;52.028;8.916;2023-06-19T04:18:13;21.00;99.90
6843;DHT22;3460;52.028;8.916;2023-06-19T04:20:40;21.00;99.90
6843;DHT22;3460;52.028;8.916;2023-06-19T04:23:07;21.00;99.90
6843;DHT22;3460;52.028;8.916;2023-06-19T04:25:34;21.00;99.90
6843;DHT22;3460;52.028;8.916;2023-06-19T04:28:01;21.00;99.90
6843;DHT22;3460;52.028;8.916;2023-06-19T04:30:29;21.00;99.90
6843;DHT22;3460;52.028;8.916;2023-06-19T04:32:57;21.00;99.90
6843;DHT22;3460;52.028;8.916;2023-06-19T04:35:24;21.00;99.90
6843;DHT22;3460;52.028;8.916;2023-06-19T04:37:51;21.10;99.90
6843;DHT22;3460;52.028;8.916;2023-06-19T04:40:17;21.10;99.90
6843;DHT22;3460;52.028;8.916;2023-06-19T04:42:44;21.00;99.90
6843;DHT22;3460;52.028;8.916;2023-06-19T04:45:11;21.00;99.90
6843;DHT22;3460;52.028;8.916;2023-06-19T04:47:38;20.90;99.90
6843;DHT22;3460;52.028;8.916;2023-06-19T04:50:07;20.80;99.90
6843;DHT22;3460;52.028;8.916;2023-06-19T04:52:34;20.80;99.90
6843;DHT22;3460;52.028;8.916;2023-06-19T04:55:01;20.80;99.90
6843;DHT22;3460;52.028;8.916;2023-06-19T04:57:28;20.90;1.00
6843;DHT22;3460;52.028;8.916;2023-06-19T04:59:55;20.80;99.90
6843;DHT22;3460;52.028;8.916;2023-06-19T05:02:22;20.90;99.90
6843;DHT22;3460;52.028;8.916;2023-06-19T05:04:49;20.90;99.90
6843;DHT22;3460;52.028;8.916;2023-06-19T05:07:17;20.90;99.90
6843;DHT22;3460;52.028;8.916;2023-06-19T05:09:44;21.00;99.90
6843;DHT22;3460;52.028;8.916;2023-06-19T05:12:11;21.00;99.90
6843;DHT22;3460;52.028;8.916;2023-06-19T05:14:38;21.10;99.90
6843;DHT22;3460;52.028;8.916;2023-06-19T05:17:05;21.20;99.90
6843;DHT22;3460;52.028;8.916;2023-06-19T05:19:32;21.10;99.90
6843;DHT22;3460;52.028;8.916;2023-06-19T05:21:59;21.10;1.00
6843;DHT22;3460;52.028;8.916;2023-06-19T05:24:27;21.10;1.00
6843;DHT22;3460;52.028;8.916;2023-06-19T05:26:53;21.20;1.00
6843;DHT22;3460;52.028;8.916;2023-06-19T05:29:20;21.20;1.00
6843;DHT22;3460;52.028;8.916;2023-06-19T05:31:47;21.30;1.00
6843;DHT22;3460;52.028;8.916;2023-06-19T05:34:14;21.30;1.00
6843;DHT22;3460;52.028;8.916;2023-06-19T05:36:41;21.30;24.40
6843;DHT22;3460;52.028;8.916;2023-06-19T05:39:12;21.40;1.00
6843;DHT22;3460;52.028;8.916;2023-06-19T05:41:41;21.50;1.00
6843;DHT22;3460;52.028;8.916;2023-06-19T05:44:11;21.50;1.00
6843;DHT22;3460;52.028;8.916;2023-06-19T05:46:40;21.60;1.00
6843;DHT22;3460;52.028;8.916;2023-06-19T05:49:07;21.70;1.00
6843;DHT22;3460;52.028;8.916;2023-06-19T05:51:34;21.80;99.90
6843;DHT22;3460;52.028;8.916;2023-06-19T05:54:00;21.90;96.40
6843;DHT22;3460;52.028;8.916;2023-06-19T05:56:29;22.00;1.00
6843;DHT22;3460;52.028;8.916;2023-06-19T05:58:57;22.10;1.00
6843;DHT22;3460;52.028;8.916;2023-06-19T06:01:24;22.40;1.00
6843;DHT22;3460;52.028;8.916;2023-06-19T06:03:53;22.70;99.90
6843;DHT22;3460;52.028;8.916;2023-06-19T06:06:20;22.90;99.90
6843;DHT22;3460;52.028;8.916;2023-06-19T06:08:47;23.10;99.90
6843;DHT22;3460;52.028;8.916;2023-06-19T06:11:14;23.30;99.90
6843;DHT22;3460;52.028;8.916;2023-06-19T06:13:41;23.40;99.90
6843;DHT22;3460;52.028;8.916;2023-06-19T06:16:09;23.50;99.90
6843;DHT22;3460;52.028;8.916;2023-06-19T06:18:37;23.60;99.90
6843;DHT22;3460;52.028;8.916;2023-06-19T06:21:03;23.70;99.90
6843;DHT22;3460;52.028;8.916;2023-06-19T06:23:30;23.80;99.90
6843;DHT22;3460;52.028;8.916;2023-06-19T06:25:57;23.90;99.90
6843;DHT22;3460;52.028;8.916;2023-06-19T06:28:27;23.90;99.90
6843;DHT22;3460;52.028;8.916;2023-06-19T06:30:54;24.00;99.90
6843;DHT22;3460;52.028;8.916;2023-06-19T06:33:23;23.90;99.90
6843;DHT22;3460;52.028;8.916;2023-06-19T06:35:50;24.00;99.90
6843;DHT22;3460;52.028;8.916;2023-06-19T06:38:17;24.00;99.90
6843;DHT22;3460;52.028;8.916;2023-06-19T06:40:44;24.00;99.90
6843;DHT22;3460;52.028;8.916;2023-06-19T06:43:11;23.90;1.00
6843;DHT22;3460;52.028;8.916;2023-06-19T06:45:38;24.00;99.90
6843;DHT22;3460;52.028;8.916;2023-06-19T06:48:07;24.00;99.90
6843;DHT22;3460;52.028;8.916;2023-06-19T06:50:35;24.20;99.90
6843;DHT22;3460;52.028;8.916;2023-06-19T06:53:02;24.30;99.90
6843;DHT22;3460;52.028;8.916;2023-06-19T06:55:29;24.30;99.90
6843;DHT22;3460;52.028;8.916;2023-06-19T06:57:56;24.30;1.00
6843;DHT22;3460;52.028;8.916;2023-06-19T07:00:22;24.30;99.90
6843;DHT22;3460;52.028;8.916;2023-06-19T07:02:49;24.30;1.00
6843;DHT22;3460;52.028;8.916;2023-06-19T07:05:17;24.40;1.00
6843;DHT22;3460;52.028;8.916;2023-06-19T07:07:45;24.40;1.00
6843;DHT22;3460;52.028;8.916;2023-06-19T07:10:12;24.50;99.90
6843;DHT22;3460;52.028;8.916;2023-06-19T07:12:46;24.60;99.90
6843;DHT22;3460;52.028;8.916;2023-06-19T07:15:13;24.60;99.90
6843;DHT22;3460;52.028;8.916;2023-06-19T07:17:39;24.60;99.90
6843;DHT22;3460;52.028;8.916;2023-06-19T07:20:07;24.70;99.90
6843;DHT22;3460;52.028;8.916;2023-06-19T07:22:34;24.60;99.90
6843;DHT22;3460;52.028;8.916;2023-06-19T07:25:03;24.60;99.90
6843;DHT22;3460;52.028;8.916;2023-06-19T07:27:30;24.60;1.00
6843;DHT22;3460;52.028;8.916;2023-06-19T07:29:57;24.80;99.90
6843;DHT22;3460;52.028;8.916;2023-06-19T07:32:23;24.90;1.00
6843;DHT22;3460;52.028;8.916;2023-06-19T07:34:50;24.80;99.90
6843;DHT22;3460;52.028;8.916;2023-06-19T07:37:17;24.80;1.00
6843;DHT22;3460;52.028;8.916;2023-06-19T07:39:44;24.90;99.90
6843;DHT22;3460;52.028;8.916;2023-06-19T07:42:13;25.00;99.90
6843;DHT22;3460;52.028;8.916;2023-06-19T07:44:39;25.20;99.90
6843;DHT22;3460;52.028;8.916;2023-06-19T07:47:07;25.20;99.90
6843;DHT22;3460;52.028;8.916;2023-06-19T07:49:34;25.30;99.90
6843;DHT22;3460;52.028;8.916;2023-06-19T07:52:00;25.40;99.90
6843;DHT22;3460;52.028;8.916;2023-06-19T07:54:27;25.30;99.90
6843;DHT22;3460;52.028;8.916;2023-06-19T07:56:54;25.30;99.90
6843;DHT22;3460;52.028;8.916;2023-06-19T07:59:22;25.40;99.90
6843;DHT22;3460;52.028;8.916;2023-06-19T08:01:49;25.30;99.90
6843;DHT22;3460;52.028;8.916;2023-06-19T08:04:16;25.40;99.90
6843;DHT22;3460;52.028;8.916;2023-06-19T08:06:43;25.40;99.90
6843;DHT22;3460;52.028;8.916;2023-06-19T08:09:10;25.40;95.90
6843;DHT22;3460;52.028;8.916;2023-06-19T08:11:36;25.30;99.90
6843;DHT22;3460;52.028;8.916;2023-06-19T08:14:03;25.20;99.90
6843;DHT22;3460;52.028;8.916;2023-06-19T08:16:31;25.10;99.90
6843;DHT22;3460;52.028;8.916;2023-06-19T08:18:58;25.00;1.00
6843;DHT22;3460;52.028;8.916;2023-06-19T08:21:25;25.00;1.00
6843;DHT22;3460;52.028;8.916;2023-06-19T08:23:52;25.00;99.90
6843;DHT22;3460;52.028;8.916;2023-06-19T08:26:18;24.90;99.90
6843;DHT22;3460;52.028;8.916;2023-06-19T08:28:45;24.80;99.90
6843;DHT22;3460;52.028;8.916;2023-06-19T08:31:13;24.70;1.00
6843;DHT22;3460;52.028;8.916;2023-06-19T08:33:41;24.80;1.00
6843;DHT22;3460;52.028;8.916;2023-06-19T08:36:08;24.90;1.00
6843;DHT22;3460;52.028;8.916;2023-06-19T08:38:35;25.00;1.00
6843;DHT22;3460;52.028;8.916;2023-06-19T08:41:01;25.00;99.90
6843;DHT22;3460;52.028;8.916;2023-06-19T08:43:28;25.00;99.90
6843;DHT22;3460;52.028;8.916;2023-06-19T08:46:06;25.00;99.90
6843;DHT22;3460;52.028;8.916;2023-06-19T08:48:34;24.80;99.90
6843;DHT22;3460;52.028;8.916;2023-06-19T08:51:03;24.80;99.90
6843;DHT22;3460;52.028;8.916;2023-06-19T08:53:33;24.80;99.90
6843;DHT22;3460;52.028;8.916;2023-06-19T08:56:00;24.80;99.90
6843;DHT22;3460;52.028;8.916;2023-06-19T08:58:27;24.60;99.90
6843;DHT22;3460;52.028;8.916;2023-06-19T09:00:54;24.60;1.00
6843;DHT22;3460;52.028;8.916;2023-06-19T09:03:21;24.70;99.90
6843;DHT22;3460;52.028;8.916;2023-06-19T09:05:49;24.80;99.90
6843;DHT22;3460;52.028;8.916;2023-06-19T09:08:18;24.80;99.90
6843;DHT22;3460;52.028;8.916;2023-06-19T09:10:55;25.00;1.00
6843;DHT22;3460;52.028;8.916;2023-06-19T09:13:21;25.30;99.90
6843;DHT22;3460;52.028;8.916;2023-06-19T09:15:57;25.40;99.90
6843;DHT22;3460;52.028;8.916;2023-06-19T09:18:25;25.30;63.50
6843;DHT22;3460;52.028;8.916;2023-06-19T09:20:53;25.20;98.10
6843;DHT22;3460;52.028;8.916;2023-06-19T09:23:21;25.00;99.90
6843;DHT22;3460;52.028;8.916;2023-06-19T09:25:50;24.90;99.90
6843;DHT22;3460;52.028;8.916;2023-06-19T09:28:21;24.80;99.90
6843;DHT22;3460;52.028;8.916;2023-06-19T09:30:52;24.70;99.90
6843;DHT22;3460;52.028;8.916;2023-06-19T09:33:19;24.60;1.00
6843;DHT22;3460;52.028;8.916;2023-06-19T09:35:46;24.50;1.00
6843;DHT22;3460;52.028;8.916;2023-06-19T09:38:14;24.60;1.00
6843;DHT22;3460;52.028;8.916;2023-06-19T09:40:45;25.00;1.00
6843;DHT22;3460;52.028;8.916;2023-06-19T09:43:14;25.20;99.90
6843;DHT22;3460;52.028;8.916;2023-06-19T09:45:41;25.40;99.90
6843;DHT22;3460;52.028;8.916;2023-06-19T09:48:09;25.40;99.90
6843;DHT22;3460;52.028;8.916;2023-06-19T09:50:39;25.50;99.90
6843;DHT22;3460;52.028;8.916;2023-06-19T09:53:07;25.60;1.00
6843;DHT22;3460;52.028;8.916;2023-06-19T09:55:35;25.60;1.00
6843;DHT22;3460;52.028;8.916;2023-06-19T09:58:05;25.50;1.00
6843;DHT22;3460;52.028;8.916;2023-06-19T10:00:33;25.50;1.00
6843;DHT22;3460;52.028;8.916;2023-06-19T10:03:00;25.60;1.00
6843;DHT22;3460;52.028;8.916;2023-06-19T10:05:29;25.70;1.00
6843;DHT22;3460;52.028;8.916;2023-06-19T10:07:56;25.70;1.00
6843;DHT22;3460;52.028;8.916;2023-06-19T10:10:26;25.60;1.00
6843;DHT22;3460;52.028;8.916;2023-06-19T10:12:55;25.50;1.00
6843;DHT22;3460;52.028;8.916;2023-06-19T10:15:25;25.40;1.00
6843;DHT22;3460;52.028;8.916;2023-06-19T10:17:53;25.10;1.00
6843;DHT22;3460;52.028;8.916;2023-06-19T10:20:24;25.00;1.00
6843;DHT22;3460;52.028;8.916;2023-06-19T10:22:59;24.80;99.90
6843;DHT22;3460;52.028;8.916;2023-06-19T10:25:28;24.80;68.10
6843;DHT22;3460;52.028;8.916;2023-06-19T10:27:57;24.80;99.90
6843;DHT22;3460;52.028;8.916;2023-06-19T10:30:25;24.80;99.90
6843;DHT22;3460;52.028;8.916;2023-06-19T10:32:52;24.90;1.00
6843;DHT22;3460;52.028;8.916;2023-06-19T10:35:20;24.90;78.80
6843;DHT22;3460;52.028;8.916;2023-06-19T10:37:49;24.80;23.40
6843;DHT22;3460;52.028;8.916;2023-06-19T10:40:17;24.80;1.00
6843;DHT22;3460;52.028;8.916;2023-06-19T10:42:44;24.80;99.90
6843;DHT22;3460;52.028;8.916;2023-06-19T10:45:12;24.80;4.10
6843;DHT22;3460;52.028;8.916;2023-06-19T10:47:43;25.00;1.00
6843;DHT22;3460;52.028;8.916;2023-06-19T10:50:13;25.20;1.00
6843;DHT22;3460;52.028;8.916;2023-06-19T10:52:42;25.20;99.90
6843;DHT22;3460;52.028;8.916;2023-06-19T10:55:10;25.40;99.90
6843;DHT22;3460;52.028;8.916;2023-06-19T10:57:37;25.40;99.90
6843;DHT22;3460;52.028;8.916;2023-06-19T11:00:05;25.30;1.00
6843;DHT22;3460;52.028;8.916;2023-06-19T11:02:39;25.10;1.00
6843;DHT22;3460;52.028;8.916;2023-06-19T11:05:10;25.10;1.00
6843;DHT22;3460;52.028;8.916;2023-06-19T11:07:37;25.10;1.00
6843;DHT22;3460;52.028;8.916;2023-06-19T11:10:06;25.10;1.00
6843;DHT22;3460;52.028;8.916;2023-06-19T11:12:33;25.10;1.00
6843;DHT22;3460;52.028;8.916;2023-06-19T11:15:06;25.10;1.00
6843;DHT22;3460;52.028;8.916;2023-06-19T11:17:33;25.10;1.00
6843;DHT22;3460;52.028;8.916;2023-06-19T11:20:00;25.00;4.40
6843;DHT22;3460;52.028;8.916;2023-06-19T11:22:40;25.20;1.00
6843;DHT22;3460;52.028;8.916;2023-06-19T11:25:09;25.20;1.00
6843;DHT22;3460;52.028;8.916;2023-06-19T11:27:38;25.30;1.00
6843;DHT22;3460;52.028;8.916;2023-06-19T11:30:07;25.40;1.00
6843;DHT22;3460;52.028;8.916;2023-06-19T11:32:36;25.50;1.00
6843;DHT22;3460;52.028;8.916;2023-06-19T11:35:08;25.60;1.00
6843;DHT22;3460;52.028;8.916;2023-06-19T11:37:36;25.60;1.00
6843;DHT22;3460;52.028;8.916;2023-06-19T11:40:05;25.60;1.00
6843;DHT22;3460;52.028;8.916;2023-06-19T11:42:45;25.40;1.00
6843;DHT22;3460;52.028;8.916;2023-06-19T11:45:12;25.30;1.00
6843;DHT22;3460;52.028;8.916;2023-06-19T11:47:39;25.40;99.90
6843;DHT22;3460;52.028;8.916;2023-06-19T11:50:07;25.40;1.00
6843;DHT22;3460;52.028;8.916;2023-06-19T11:52:34;25.20;1.00
6843;DHT22;3460;52.028;8.916;2023-06-19T11:55:01;25.20;51.20
6843;DHT22;3460;52.028;8.916;2023-06-19T11:57:29;25.10;99.90
6843;DHT22;3460;52.028;8.916;2023-06-19T11:59:58;25.30;1.00
6843;DHT22;3460;52.028;8.916;2023-06-19T12:02:25;25.30;1.00
6843;DHT22;3460;52.028;8.916;2023-06-19T12:04:52;25.30;99.90
6843;DHT22;3460;52.028;8.916;2023-06-19T12:07:19;25.20;1.00
6843;DHT22;3460;52.028;8.916;2023-06-19T12:09:46;25.10;1.00
6843;DHT22;3460;52.028;8.916;2023-06-19T12:12:13;25.00;6.80
6843;DHT22;3460;52.028;8.916;2023-06-19T12:14:41;25.00;1.00
6843;DHT22;3460;52.028;8.916;2023-06-19T12:17:08;25.10;42.30
6843;DHT22;3460;52.028;8.916;2023-06-19T12:19:34;25.10;99.90
6843;DHT22;3460;52.028;8.916;2023-06-19T12:22:03;25.20;7.70
6843;DHT22;3460;52.028;8.916;2023-06-19T12:24:30;25.40;1.00
6843;DHT22;3460;52.028;8.916;2023-06-19T12:26:57;25.40;1.00
6843;DHT22;3460;52.028;8.916;2023-06-19T12:29:23;25.40;1.00
6843;DHT22;3460;52.028;8.916;2023-06-19T12:31:58;25.30;1.00
6843;DHT22;3460;52.028;8.916;2023-06-19T12:34:24;25.30;99.90
6843;DHT22;3460;52.028;8.916;2023-06-19T12:36:52;25.30;1.00
6843;DHT22;3460;52.028;8.916;2023-06-19T12:39:19;25.50;21.90
6843;DHT22;3460;52.028;8.916;2023-06-19T12:41:47;25.60;1.00
6843;DHT22;3460;52.028;8.916;2023-06-19T12:44:14;25.60;1.00
6843;DHT22;3460;52.028;8.916;2023-06-19T12:46:40;25.60;1.00
6843;DHT22;3460;52.028;8.916;2023-06-19T12:49:08;25.60;1.00
6843;DHT22;3460;52.028;8.916;2023-06-19T12:51:35;25.60;99.90
6843;DHT22;3460;52.028;8.916;2023-06-19T12:54:02;25.60;81.70
6843;DHT22;3460;52.028;8.916;2023-06-19T12:56:29;25.60;1.00
6843;DHT22;3460;52.028;8.916;2023-06-19T12:58:56;25.70;1.00
6843;DHT22;3460;52.028;8.916;2023-06-19T13:01:23;25.80;1.00
6843;DHT22;3460;52.028;8.916;2023-06-19T13:03:50;25.90;1.00
6843;DHT22;3460;52.028;8.916;2023-06-19T13:06:18;26.20;1.00
6843;DHT22;3460;52.028;8.916;2023-06-19T13:08:45;26.30;1.00
6843;DHT22;3460;52.028;8.916;2023-06-19T13:11:12;26.40;99.90
6843;DHT22;3460;52.028;8.916;2023-06-19T13:13:39;26.40;99.90
6843;DHT22;3460;52.028;8.916;2023-06-19T13:16:06;26.50;99.90
6843;DHT22;3460;52.028;8.916;2023-06-19T13:18:32;26.70;99.90
6843;DHT22;3460;52.028;8.916;2023-06-19T13:20:59;26.70;99.90
6843;DHT22;3460;52.028;8.916;2023-06-19T13:23:27;26.90;1.00
6843;DHT22;3460;52.028;8.916;2023-06-19T13:25:56;27.00;1.00
6843;DHT22;3460;52.028;8.916;2023-06-19T13:28:23;26.70;1.00
6843;DHT22;3460;52.028;8.916;2023-06-19T13:30:50;26.50;99.10
6843;DHT22;3460;52.028;8.916;2023-06-19T13:33:17;26.60;1.00
6843;DHT22;3460;52.028;8.916;2023-06-19T13:35:44;26.70;1.00
6843;DHT22;3460;52.028;8.916;2023-06-19T13:38:11;26.90;1.00
6843;DHT22;3460;52.028;8.916;2023-06-19T13:40:39;26.90;1.00
6843;DHT22;3460;52.028;8.916;2023-06-19T13:43:07;26.90;1.00
6843;DHT22;3460;52.028;8.916;2023-06-19T13:45:34;26.90;1.00
6843;DHT22;3460;52.028;8.916;2023-06-19T13:48:01;27.10;1.00
6843;DHT22;3460;52.028;8.916;2023-06-19T13:50:28;27.20;1.00
6843;DHT22;3460;52.028;8.916;2023-06-19T13:52:54;27.10;99.90
6843;DHT22;3460;52.028;8.916;2023-06-19T13:55:21;27.00;99.90
6843;DHT22;3460;52.028;8.916;2023-06-19T13:57:50;26.80;99.90
6843;DHT22;3460;52.028;8.916;2023-06-19T14:00:18;26.90;99.90
6843;DHT22;3460;52.028;8.916;2023-06-19T14:02:45;27.00;99.90
6843;DHT22;3460;52.028;8.916;2023-06-19T14:05:12;27.10;99.90
6843;DHT22;3460;52.028;8.916;2023-06-19T14:07:40;27.10;99.90
6843;DHT22;3460;52.028;8.916;2023-06-19T14:10:08;27.00;99.90
6843;DHT22;3460;52.028;8.916;2023-06-19T14:12:35;26.90;99.90
6843;DHT22;3460;52.028;8.916;2023-06-19T14:15:05;26.90;99.90
6843;DHT22;3460;52.028;8.916;2023-06-19T14:17:32;26.90;99.90
6843;DHT22;3460;52.028;8.916;2023-06-19T14:19:59;26.90;99.90
6843;DHT22;3460;52.028;8.916;2023-06-19T14:22:26;27.00;99.90
6843;DHT22;3460;52.028;8.916;2023-06-19T14:24:52;26.90;1.00
6843;DHT22;3460;52.028;8.916;2023-06-19T14:27:25;26.90;1.00
6843;DHT22;3460;52.028;8.916;2023-06-19T14:29:51;27.10;99.90
6843;DHT22;3460;52.028;8.916;2023-06-19T14:32:21;27.20;1.00
6843;DHT22;3460;52.028;8.916;2023-06-19T14:34:48;27.20;1.00
6843;DHT22;3460;52.028;8.916;2023-06-19T14:37:15;27.20;1.00
6843;DHT22;3460;52.028;8.916;2023-06-19T14:39:42;27.20;1.00
6843;DHT22;3460;52.028;8.916;2023-06-19T14:42:09;27.20;1.00
6843;DHT22;3460;52.028;8.916;2023-06-19T14:44:36;27.10;99.90
6843;DHT22;3460;52.028;8.916;2023-06-19T14:47:04;27.20;1.00
6843;DHT22;3460;52.028;8.916;2023-06-19T14:49:32;27.20;1.00
6843;DHT22;3460;52.028;8.916;2023-06-19T14:51:59;27.20;1.00
6843;DHT22;3460;52.028;8.916;2023-06-19T14:54:25;27.20;1.00
6843;DHT22;3460;52.028;8.916;2023-06-19T14:56:52;27.20;1.00
6843;DHT22;3460;52.028;8.916;2023-06-19T14:59:19;27.20;1.00
6843;DHT22;3460;52.028;8.916;2023-06-19T15:01:46;27.20;1.00
6843;DHT22;3460;52.028;8.916;2023-06-19T15:04:13;27.20;1.00
6843;DHT22;3460;52.028;8.916;2023-06-19T15:06:41;27.20;1.00
6843;DHT22;3460;52.028;8.916;2023-06-19T15:09:07;27.10;1.00
6843;DHT22;3460;52.028;8.916;2023-06-19T15:11:34;27.00;99.90
6843;DHT22;3460;52.028;8.916;2023-06-19T15:14:01;27.10;99.90
6843;DHT22;3460;52.028;8.916;2023-06-19T15:16:28;27.00;99.90
6843;DHT22;3460;52.028;8.916;2023-06-19T15:18:55;27.00;1.00
6843;DHT22;3460;52.028;8.916;2023-06-19T15:21:22;26.80;99.90
6843;DHT22;3460;52.028;8.916;2023-06-19T15:23:53;26.80;99.90
6843;DHT22;3460;52.028;8.916;2023-06-19T15:26:20;26.80;99.90
6843;DHT22;3460;52.028;8.916;2023-06-19T15:28:47;26.90;99.90
6843;DHT22;3460;52.028;8.916;2023-06-19T15:31:14;27.00;1.00
6843;DHT22;3460;52.028;8.916;2023-06-19T15:33:42;27.10;99.90
6843;DHT22;3460;52.028;8.916;2023-06-19T15:36:08;27.10;99.90
6843;DHT22;3460;52.028;8.916;2023-06-19T15:38:35;27.20;99.90
6843;DHT22;3460;52.028;8.916;2023-06-19T15:41:03;27.20;99.90
6843;DHT22;3460;52.028;8.916;2023-06-19T15:43:30;27.10;99.90
6843;DHT22;3460;52.028;8.916;2023-06-19T15:45:57;27.00;99.90
6843;DHT22;3460;52.028;8.916;2023-06-19T15:48:24;27.00;99.90
6843;DHT22;3460;52.028;8.916;2023-06-19T15:50:51;27.00;99.90
6843;DHT22;3460;52.028;8.916;2023-06-19T15:53:18;27.10;99.90
6843;DHT22;3460;52.028;8.916;2023-06-19T15:55:45;27.10;99.90
6843;DHT22;3460;52.028;8.916;2023-06-19T15:58:13;27.00;41.30
6843;DHT22;3460;52.028;8.916;2023-06-19T16:00:40;26.80;37.20
6843;DHT22;3460;52.028;8.916;2023-06-19T16:03:06;26.70;1.00
6843;DHT22;3460;52.028;8.916;2023-06-19T16:05:33;26.60;30.20
6843;DHT22;3460;52.028;8.916;2023-06-19T16:08:00;26.70;28.00
6843;DHT22;3460;52.028;8.916;2023-06-19T16:10:27;26.70;1.00
6843;DHT22;3460;52.028;8.916;2023-06-19T16:12:54;26.70;37.30